sensor_id;sensor_type;location;lat;lon;timestamp;pressure;altitude;pressure_sealevel;temperature;humidity
29417;BME280;28421;51.030;4.006;2023-04-03T03:20:15;102992.94;;;0.41;85.90
29417;BME280;28421;51.030;4.006;2023-04-03T03:22:41;102993.44;;;0.27;85.98
29417;BME280;28421;51.030;4.006;2023-04-03T03:25:06;102994.09;;;0.34;85.97
29417;BME280;28421;51.030;4.006;2023-04-03T03:27:32;103013.09;;;0.45;86.12
29417;BME280;28421;51.030;4.006;2023-04-03T03:29:57;103027.00;;;0.52;85.86
29417;BME280;28421;51.030;4.006;2023-04-03T03:32:23;102997.81;;;0.28;85.99
29417;BME280;28421;51.030;4.006;2023-04-03T03:34:49;103000.34;;;0.31;85.61
29417;BME280;28421;51.030;4.006;2023-04-03T03:37:14;103019.41;;;0.41;85.76
29417;BME280;28421;51.030;4.006;2023-04-03T03:39:40;103001.22;;;0.32;86.09
29417;BME280;28421;51.030;4.006;2023-04-03T03:42:05;103015.81;;;0.43;85.99
29417;BME280;28421;51.030;4.006;2023-04-03T03:44:31;103035.09;;;0.47;85.72
29417;BME280;28421;51.030;4.006;2023-04-03T03:46:57;102994.53;;;0.21;85.99
29417;BME280;28421;51.030;4.006;2023-04-03T03:49:22;103000.59;;;0.23;85.67
29417;BME280;28421;51.030;4.006;2023-04-03T03:51:49;103027.25;;;0.44;85.78
29417;BME280;28421;51.030;4.006;2023-04-03T03:54:15;103022.13;;;0.39;85.80
29417;BME280;28421;51.030;4.006;2023-04-03T03:56:41;103015.44;;;0.29;85.38
29417;BME280;28421;51.030;4.006;2023-04-03T03:59:07;103000.09;;;0.12;85.72
29417;BME280;28421;51.030;4.006;2023-04-03T04:01:33;103029.16;;;0.14;85.62
29417;BME280;28421;51.030;4.006;2023-04-03T04:03:59;102995.59;;;-0.11;86.08
29417;BME280;28421;51.030;4.006;2023-04-03T04:06:29;102993.91;;;-0.13;86.05
29417;BME280;28421;51.030;4.006;2023-04-03T04:08:58;103022.28;;;0.08;85.91
29417;BME280;28421;51.030;4.006;2023-04-03T04:11:23;102992.28;;;-0.17;85.87
29417;BME280;28421;51.030;4.006;2023-04-03T04:13:51;103023.66;;;-0.07;85.81
29417;BME280;28421;51.030;4.006;2023-04-03T04:16:19;102975.94;;;-0.30;85.93
29417;BME280;28421;51.030;4.006;2023-04-03T04:18:45;103014.28;;;-0.17;85.86
29417;BME280;28421;51.030;4.006;2023-04-03T04:21:11;103018.56;;;-0.13;86.04
29417;BME280;28421;51.030;4.006;2023-04-03T04:23:37;103015.88;;;-0.11;85.76
29417;BME280;28421;51.030;4.006;2023-04-03T04:26:03;103002.97;;;-0.20;85.78
29417;BME280;28421;51.030;4.006;2023-04-03T04:28:32;103043.66;;;0.02;85.58
29417;BME280;28421;51.030;4.006;2023-04-03T04:30:59;103036.69;;;-0.01;85.54
29417;BME280;28421;51.030;4.006;2023-04-03T04:33:26;103010.78;;;-0.17;85.38
29417;BME280;28421;51.030;4.006;2023-04-03T04:35:52;103017.09;;;-0.21;85.37
29417;BME280;28421;51.030;4.006;2023-04-03T04:38:19;103010.00;;;-0.21;85.51
29417;BME280;28421;51.030;4.006;2023-04-03T04:40:47;103042.94;;;-0.03;85.33
29417;BME280;28421;51.030;4.006;2023-04-03T04:43:12;103040.59;;;-0.12;85.65
29417;BME280;28421;51.030;4.006;2023-04-03T04:45:41;103020.41;;;-0.43;86.41
29417;BME280;28421;51.030;4.006;2023-04-03T04:48:07;103038.34;;;-0.24;86.48
29417;BME280;28421;51.030;4.006;2023-04-03T04:50:33;103056.41;;;-0.11;86.60
29417;BME280;28421;51.030;4.006;2023-04-03T04:52:58;103006.00;;;-0.33;86.20
29417;BME280;28421;51.030;4.006;2023-04-03T04:55:24;103046.59;;;-0.07;86.02
29417;BME280;28421;51.030;4.006;2023-04-03T04:57:50;103018.94;;;-0.25;85.94
29417;BME280;28421;51.030;4.006;2023-04-03T05:00:16;103033.81;;;-0.21;85.92
29417;BME280;28421;51.030;4.006;2023-04-03T05:02:42;103032.16;;;-0.25;85.94
29417;BME280;28421;51.030;4.006;2023-04-03T05:05:07;103013.94;;;-0.33;85.77
29417;BME280;28421;51.030;4.006;2023-04-03T05:07:33;103033.81;;;-0.21;85.81
29417;BME280;28421;51.030;4.006;2023-04-03T05:10:02;103001.59;;;-0.34;85.92
29417;BME280;28421;51.030;4.006;2023-04-03T05:12:28;103049.19;;;-0.06;85.80
29417;BME280;28421;51.030;4.006;2023-04-03T05:14:58;103038.13;;;-0.18;86.00
29417;BME280;28421;51.030;4.006;2023-04-03T05:17:25;102987.97;;;-0.48;85.94
29417;BME280;28421;51.030;4.006;2023-04-03T05:19:54;102993.13;;;-0.43;86.04
29417;BME280;28421;51.030;4.006;2023-04-03T05:22:21;103011.16;;;-0.28;86.00
29417;BME280;28421;51.030;4.006;2023-04-03T05:24:47;103005.94;;;-0.31;86.06
29417;BME280;28421;51.030;4.006;2023-04-03T05:27:14;103039.16;;;-0.22;85.76
29417;BME280;28421;51.030;4.006;2023-04-03T05:29:43;103035.66;;;-0.23;85.84
29417;BME280;28421;51.030;4.006;2023-04-03T05:32:11;103046.91;;;-0.16;86.12
29417;BME280;28421;51.030;4.006;2023-04-03T05:34:37;103010.59;;;-0.39;86.26
29417;BME280;28421;51.030;4.006;2023-04-03T05:37:03;103036.50;;;-0.22;85.94
29417;BME280;28421;51.030;4.006;2023-04-03T05:39:30;103008.91;;;-0.42;86.20
29417;BME280;28421;51.030;4.006;2023-04-03T05:41:57;103033.06;;;-0.24;86.14
29417;BME280;28421;51.030;4.006;2023-04-03T05:44:23;103046.84;;;-0.15;86.12
29417;BME280;28421;51.030;4.006;2023-04-03T05:46:49;103030.34;;;-0.23;85.82
29417;BME280;28421;51.030;4.006;2023-04-03T05:49:15;103014.69;;;-0.29;85.73
29417;BME280;28421;51.030;4.006;2023-04-03T05:51:41;103050.09;;;-0.07;86.16
29417;BME280;28421;51.030;4.006;2023-04-03T05:54:25;103048.16;;;0.00;86.26
29417;BME280;28421;51.030;4.006;2023-04-03T05:56:55;103063.59;;;0.12;85.67
29417;BME280;28421;51.030;4.006;2023-04-03T05:59:21;102995.84;;;-0.18;85.78
29417;BME280;28421;51.030;4.006;2023-04-03T06:01:49;103065.53;;;0.34;86.32
29417;BME280;28421;51.030;4.006;2023-04-03T06:04:15;103064.25;;;0.45;86.21
29417;BME280;28421;51.030;4.006;2023-04-03T06:06:52;103066.59;;;0.55;86.50
29417;BME280;28421;51.030;4.006;2023-04-03T06:09:20;103023.94;;;0.37;86.72
29417;BME280;28421;51.030;4.006;2023-04-03T06:11:46;103029.91;;;0.44;87.31
29417;BME280;28421;51.030;4.006;2023-04-03T06:14:12;103023.59;;;0.48;87.28
29417;BME280;28421;51.030;4.006;2023-04-03T06:16:39;103049.94;;;0.76;87.93
29417;BME280;28421;51.030;4.006;2023-04-03T06:19:09;103025.63;;;0.65;87.90
29417;BME280;28421;51.030;4.006;2023-04-03T06:21:38;103027.94;;;0.74;87.96
29417;BME280;28421;51.030;4.006;2023-04-03T06:24:05;103025.13;;;0.79;87.88
29417;BME280;28421;51.030;4.006;2023-04-03T06:26:32;103068.59;;;1.21;87.73
29417;BME280;28421;51.030;4.006;2023-04-03T06:28:58;103074.50;;;1.30;87.23
29417;BME280;28421;51.030;4.006;2023-04-03T06:31:23;103027.06;;;0.98;87.06
29417;BME280;28421;51.030;4.006;2023-04-03T06:33:49;103055.06;;;1.29;86.90
29417;BME280;28421;51.030;4.006;2023-04-03T06:36:15;103061.91;;;1.35;87.21
29417;BME280;28421;51.030;4.006;2023-04-03T06:38:45;103084.59;;;1.65;86.83
29417;BME280;28421;51.030;4.006;2023-04-03T06:41:10;103042.25;;;1.40;86.70
29417;BME280;28421;51.030;4.006;2023-04-03T06:43:36;103059.47;;;1.52;86.69
29417;BME280;28421;51.030;4.006;2023-04-03T06:46:02;103072.16;;;1.67;86.33
29417;BME280;28421;51.030;4.006;2023-04-03T06:48:27;103073.88;;;1.68;86.51
29417;BME280;28421;51.030;4.006;2023-04-03T06:50:53;103055.13;;;1.73;86.58
29417;BME280;28421;51.030;4.006;2023-04-03T06:53:19;103055.56;;;1.84;86.66
29417;BME280;28421;51.030;4.006;2023-04-03T06:55:44;103074.50;;;1.97;86.53
29417;BME280;28421;51.030;4.006;2023-04-03T06:58:10;103088.50;;;2.22;86.51
29417;BME280;28421;51.030;4.006;2023-04-03T07:00:35;103079.22;;;2.12;86.34
29417;BME280;28421;51.030;4.006;2023-04-03T07:03:01;103054.78;;;2.04;86.26
29417;BME280;28421;51.030;4.006;2023-04-03T07:05:26;103073.75;;;2.37;86.21
29417;BME280;28421;51.030;4.006;2023-04-03T07:07:52;103052.00;;;2.28;86.17
29417;BME280;28421;51.030;4.006;2023-04-03T07:10:18;103101.94;;;2.62;85.95
29417;BME280;28421;51.030;4.006;2023-04-03T07:12:44;103068.25;;;2.42;85.73
29417;BME280;28421;51.030;4.006;2023-04-03T07:15:10;103061.41;;;2.57;85.69
29417;BME280;28421;51.030;4.006;2023-04-03T07:17:37;103066.66;;;2.79;85.60
29417;BME280;28421;51.030;4.006;2023-04-03T07:20:03;103080.69;;;2.82;85.34
29417;BME280;28421;51.030;4.006;2023-04-03T07:22:30;103096.03;;;3.15;85.14
29417;BME280;28421;51.030;4.006;2023-04-03T07:24:56;103105.44;;;3.23;85.25
29417;BME280;28421;51.030;4.006;2023-04-03T07:27:21;103080.91;;;3.17;85.03
29417;BME280;28421;51.030;4.006;2023-04-03T07:29:47;103083.78;;;3.31;84.18
29417;BME280;28421;51.030;4.006;2023-04-03T07:32:14;103069.66;;;3.49;84.34
29417;BME280;28421;51.030;4.006;2023-04-03T07:34:40;103043.50;;;3.40;83.86
29417;BME280;28421;51.030;4.006;2023-04-03T07:37:05;103080.72;;;3.78;83.31
29417;BME280;28421;51.030;4.006;2023-04-03T07:39:31;103105.44;;;3.99;81.30
29417;BME280;28421;51.030;4.006;2023-04-03T07:41:57;103073.94;;;3.90;79.91
29417;BME280;28421;51.030;4.006;2023-04-03T07:44:23;103087.13;;;4.10;78.60
29417;BME280;28421;51.030;4.006;2023-04-03T07:46:48;103075.56;;;4.11;77.17
29417;BME280;28421;51.030;4.006;2023-04-03T07:49:14;103066.50;;;4.15;78.33
29417;BME280;28421;51.030;4.006;2023-04-03T07:51:39;103091.94;;;4.38;77.41
29417;BME280;28421;51.030;4.006;2023-04-03T07:54:05;103104.59;;;4.52;77.03
29417;BME280;28421;51.030;4.006;2023-04-03T07:56:31;103112.59;;;4.69;76.90
29417;BME280;28421;51.030;4.006;2023-04-03T07:58:57;103063.75;;;4.52;74.91
29417;BME280;28421;51.030;4.006;2023-04-03T08:01:22;103085.56;;;4.77;75.54
29417;BME280;28421;51.030;4.006;2023-04-03T08:03:48;103071.34;;;4.77;75.32
29417;BME280;28421;51.030;4.006;2023-04-03T08:06:13;103095.84;;;5.01;74.27
29417;BME280;28421;51.030;4.006;2023-04-03T08:08:40;103116.28;;;5.17;73.87
29417;BME280;28421;51.030;4.006;2023-04-03T08:11:06;103102.50;;;5.09;72.63
29417;BME280;28421;51.030;4.006;2023-04-03T08:13:33;103117.06;;;5.37;73.15
29417;BME280;28421;51.030;4.006;2023-04-03T08:16:16;103117.59;;;5.43;72.25
29417;BME280;28421;51.030;4.006;2023-04-03T08:18:42;103096.72;;;5.34;71.64
29417;BME280;28421;51.030;4.006;2023-04-03T08:21:09;103126.56;;;5.58;71.42
29417;BME280;28421;51.030;4.006;2023-04-03T08:23:36;103131.56;;;5.64;72.96
29417;BME280;28421;51.030;4.006;2023-04-03T08:26:06;103135.53;;;5.73;70.39
29417;BME280;28421;51.030;4.006;2023-04-03T08:28:32;103086.25;;;5.47;69.65
29417;BME280;28421;51.030;4.006;2023-04-03T08:31:02;103101.31;;;5.64;68.26
29417;BME280;28421;51.030;4.006;2023-04-03T08:33:28;103087.13;;;5.63;67.56
29417;BME280;28421;51.030;4.006;2023-04-03T08:35:53;103124.72;;;5.92;67.55
29417;BME280;28421;51.030;4.006;2023-04-03T08:38:18;103078.00;;;5.67;67.05
29417;BME280;28421;51.030;4.006;2023-04-03T08:40:44;103128.50;;;6.19;68.85
29417;BME280;28421;51.030;4.006;2023-04-03T08:43:35;103125.56;;;6.40;68.15
29417;BME280;28421;51.030;4.006;2023-04-03T08:46:05;103126.25;;;6.43;66.70
29417;BME280;28421;51.030;4.006;2023-04-03T08:48:33;103087.31;;;6.23;68.34
29417;BME280;28421;51.030;4.006;2023-04-03T08:51:03;103100.19;;;6.47;68.37
29417;BME280;28421;51.030;4.006;2023-04-03T08:53:34;103114.47;;;6.62;67.50
29417;BME280;28421;51.030;4.006;2023-04-03T08:56:07;103109.78;;;6.65;68.14
29417;BME280;28421;51.030;4.006;2023-04-03T08:58:42;103102.41;;;6.55;65.85
29417;BME280;28421;51.030;4.006;2023-04-03T09:01:19;103113.91;;;6.71;65.48
29417;BME280;28421;51.030;4.006;2023-04-03T09:03:46;103075.66;;;6.55;65.51
29417;BME280;28421;51.030;4.006;2023-04-03T09:06:20;103122.28;;;6.95;65.80
29417;BME280;28421;51.030;4.006;2023-04-03T09:08:54;103097.75;;;7.03;66.06
29417;BME280;28421;51.030;4.006;2023-04-03T09:14:16;103125.63;;;7.13;63.43
29417;BME280;28421;51.030;4.006;2023-04-03T09:16:55;103119.53;;;7.25;64.75
29417;BME280;28421;51.030;4.006;2023-04-03T09:19:38;103092.78;;;7.25;64.83
29417;BME280;28421;51.030;4.006;2023-04-03T09:22:17;103116.78;;;7.27;61.28
29417;BME280;28421;51.030;4.006;2023-04-03T09:27:29;103070.03;;;6.89;61.46
29417;BME280;28421;51.030;4.006;2023-04-03T09:29:56;103111.31;;;7.14;59.73
29417;BME280;28421;51.030;4.006;2023-04-03T09:34:51;103094.69;;;7.23;61.00
29417;BME280;28421;51.030;4.006;2023-04-03T09:37:38;103107.03;;;7.40;59.77
29417;BME280;28421;51.030;4.006;2023-04-03T09:40:05;103096.81;;;7.32;60.07
29417;BME280;28421;51.030;4.006;2023-04-03T09:42:32;103054.16;;;7.29;61.57
29417;BME280;28421;51.030;4.006;2023-04-03T09:45:03;103065.16;;;7.39;60.05
29417;BME280;28421;51.030;4.006;2023-04-03T09:52:44;103076.50;;;7.57;59.17
29417;BME280;28421;51.030;4.006;2023-04-03T09:55:14;103085.03;;;7.49;56.04
29417;BME280;28421;51.030;4.006;2023-04-03T09:57:40;103090.75;;;7.71;59.02
29417;BME280;28421;51.030;4.006;2023-04-03T10:00:23;103056.72;;;7.59;58.61
29417;BME280;28421;51.030;4.006;2023-04-03T10:02:53;103052.91;;;7.63;58.20
29417;BME280;28421;51.030;4.006;2023-04-03T10:05:31;103059.72;;;7.82;57.62
29417;BME280;28421;51.030;4.006;2023-04-03T10:10:40;103068.66;;;7.68;55.79
29417;BME280;28421;51.030;4.006;2023-04-03T10:13:18;103052.66;;;7.81;55.45
29417;BME280;28421;51.030;4.006;2023-04-03T10:15:50;103032.28;;;7.78;55.42
29417;BME280;28421;51.030;4.006;2023-04-03T10:18:39;103079.41;;;8.22;56.19
29417;BME280;28421;51.030;4.006;2023-04-03T10:21:16;103036.34;;;7.98;55.09
29417;BME280;28421;51.030;4.006;2023-04-03T10:26:56;103069.28;;;8.40;55.66
29417;BME280;28421;51.030;4.006;2023-04-03T10:29:42;103045.31;;;8.24;54.39
29417;BME280;28421;51.030;4.006;2023-04-03T10:32:14;103066.31;;;8.57;55.37
29417;BME280;28421;51.030;4.006;2023-04-03T10:34:43;103027.84;;;8.31;54.27
29417;BME280;28421;51.030;4.006;2023-04-03T10:45:06;103045.34;;;8.77;51.14
29417;BME280;28421;51.030;4.006;2023-04-03T10:58:29;103003.53;;;9.24;51.59
29417;BME280;28421;51.030;4.006;2023-04-03T11:01:03;102990.31;;;9.33;51.42
29417;BME280;28421;51.030;4.006;2023-04-03T11:03:38;103014.56;;;9.44;50.94
29417;BME280;28421;51.030;4.006;2023-04-03T11:06:09;102972.44;;;8.95;45.26
29417;BME280;28421;51.030;4.006;2023-04-03T11:08:51;103041.25;;;9.09;41.64
29417;BME280;28421;51.030;4.006;2023-04-03T11:11:25;103001.22;;;9.06;44.68
29417;BME280;28421;51.030;4.006;2023-04-03T11:13:58;102999.91;;;8.99;42.06
29417;BME280;28421;51.030;4.006;2023-04-03T11:16:30;103037.25;;;9.28;44.13
29417;BME280;28421;51.030;4.006;2023-04-03T11:19:17;103001.31;;;9.17;43.30
29417;BME280;28421;51.030;4.006;2023-04-03T11:22:08;103021.66;;;9.45;43.98
29417;BME280;28421;51.030;4.006;2023-04-03T11:24:43;102988.84;;;9.29;44.87
29417;BME280;28421;51.030;4.006;2023-04-03T11:27:19;102979.06;;;9.15;42.71
29417;BME280;28421;51.030;4.006;2023-04-03T11:30:15;103010.88;;;9.82;46.78
29417;BME280;28421;51.030;4.006;2023-04-03T11:39:32;102976.53;;;9.75;47.70
29417;BME280;28421;51.030;4.006;2023-04-03T11:42:25;102990.13;;;9.60;45.99
29417;BME280;28421;51.030;4.006;2023-04-03T11:53:53;102969.19;;;10.01;46.32
29417;BME280;28421;51.030;4.006;2023-04-03T12:04:18;102966.25;;;10.28;43.49
29417;BME280;28421;51.030;4.006;2023-04-03T12:12:58;102958.06;;;10.40;42.50
29417;BME280;28421;51.030;4.006;2023-04-03T12:21:05;102915.81;;;10.07;46.14
29417;BME280;28421;51.030;4.006;2023-04-03T12:23:35;102930.34;;;10.29;43.61
29417;BME280;28421;51.030;4.006;2023-04-03T12:26:21;102952.97;;;10.37;45.21
29417;BME280;28421;51.030;4.006;2023-04-03T12:28:48;102896.72;;;10.34;44.40
29417;BME280;28421;51.030;4.006;2023-04-03T12:31:15;102929.97;;;10.44;41.83
29417;BME280;28421;51.030;4.006;2023-04-03T12:34:24;102940.38;;;10.60;41.03
29417;BME280;28421;51.030;4.006;2023-04-03T12:36:51;102913.13;;;10.42;41.04
29417;BME280;28421;51.030;4.006;2023-04-03T12:45:19;102921.28;;;9.94;36.11
29417;BME280;28421;51.030;4.006;2023-04-03T12:47:48;102952.22;;;10.11;36.59
29417;BME280;28421;51.030;4.006;2023-04-03T12:50:20;102923.53;;;10.12;37.93
29417;BME280;28421;51.030;4.006;2023-04-03T12:55:44;102913.88;;;10.09;37.08
29417;BME280;28421;51.030;4.006;2023-04-03T12:58:14;102941.34;;;10.48;38.79
29417;BME280;28421;51.030;4.006;2023-04-03T13:00:44;102893.41;;;10.31;39.77
29417;BME280;28421;51.030;4.006;2023-04-03T13:03:22;102914.94;;;10.53;38.40
29417;BME280;28421;51.030;4.006;2023-04-03T13:05:49;102918.25;;;10.68;39.67
29417;BME280;28421;51.030;4.006;2023-04-03T13:08:16;102893.06;;;10.47;38.59
29417;BME280;28421;51.030;4.006;2023-04-03T13:11:04;102931.31;;;10.39;35.29
29417;BME280;28421;51.030;4.006;2023-04-03T13:13:31;102886.84;;;10.46;35.80
29417;BME280;28421;51.030;4.006;2023-04-03T13:15:59;102896.38;;;10.50;36.68
29417;BME280;28421;51.030;4.006;2023-04-03T13:18:31;102876.09;;;10.46;37.30
29417;BME280;28421;51.030;4.006;2023-04-03T13:21:18;102907.50;;;10.68;37.24
29417;BME280;28421;51.030;4.006;2023-04-03T13:23:48;102855.31;;;10.37;37.91
29417;BME280;28421;51.030;4.006;2023-04-03T13:26:19;102843.31;;;10.41;36.24
29417;BME280;28421;51.030;4.006;2023-04-03T13:28:46;102880.47;;;10.47;36.27
29417;BME280;28421;51.030;4.006;2023-04-03T13:34:07;102894.63;;;10.49;37.02
29417;BME280;28421;51.030;4.006;2023-04-03T13:36:38;102883.41;;;10.44;36.35
29417;BME280;28421;51.030;4.006;2023-04-03T13:41:38;102856.63;;;10.31;34.37
29417;BME280;28421;51.030;4.006;2023-04-03T13:46:55;102903.97;;;10.79;36.82
29417;BME280;28421;51.030;4.006;2023-04-03T13:49:42;102898.31;;;10.82;36.90
29417;BME280;28421;51.030;4.006;2023-04-03T13:52:23;102860.44;;;10.62;36.41
29417;BME280;28421;51.030;4.006;2023-04-03T13:55:00;102888.16;;;10.85;34.96
29417;BME280;28421;51.030;4.006;2023-04-03T13:57:26;102883.25;;;10.90;36.60
29417;BME280;28421;51.030;4.006;2023-04-03T13:59:52;102866.19;;;10.47;33.17
29417;BME280;28421;51.030;4.006;2023-04-03T14:02:33;102852.22;;;10.53;35.39
29417;BME280;28421;51.030;4.006;2023-04-03T14:05:01;102859.19;;;10.55;36.42
29417;BME280;28421;51.030;4.006;2023-04-03T14:07:29;102852.13;;;10.43;35.71
29417;BME280;28421;51.030;4.006;2023-04-03T14:09:56;102886.47;;;10.62;33.93
29417;BME280;28421;51.030;4.006;2023-04-03T14:12:27;102857.50;;;10.54;34.70
29417;BME280;28421;51.030;4.006;2023-04-03T14:14:55;102845.63;;;10.34;34.34
29417;BME280;28421;51.030;4.006;2023-04-03T14:17:24;102848.91;;;10.49;34.27
29417;BME280;28421;51.030;4.006;2023-04-03T14:19:51;102866.78;;;10.61;33.55
29417;BME280;28421;51.030;4.006;2023-04-03T14:22:20;102816.16;;;10.55;38.35
29417;BME280;28421;51.030;4.006;2023-04-03T14:24:47;102857.75;;;10.62;35.63
29417;BME280;28421;51.030;4.006;2023-04-03T14:27:17;102835.22;;;10.63;36.61
29417;BME280;28421;51.030;4.006;2023-04-03T14:29:43;102820.56;;;10.67;35.16
29417;BME280;28421;51.030;4.006;2023-04-03T14:32:12;102825.19;;;10.65;35.59
29417;BME280;28421;51.030;4.006;2023-04-03T14:34:38;102819.94;;;10.53;35.13
29417;BME280;28421;51.030;4.006;2023-04-03T14:37:05;102836.41;;;10.82;36.34
29417;BME280;28421;51.030;4.006;2023-04-03T14:39:34;102847.16;;;10.93;36.39
29417;BME280;28421;51.030;4.006;2023-04-03T14:41:59;102825.56;;;10.61;34.87
29417;BME280;28421;51.030;4.006;2023-04-03T14:44:25;102829.63;;;10.66;35.20
29417;BME280;28421;51.030;4.006;2023-04-03T14:46:51;102819.94;;;10.75;36.22
29417;BME280;28421;51.030;4.006;2023-04-03T14:49:22;102835.38;;;10.39;33.48
29417;BME280;28421;51.030;4.006;2023-04-03T14:51:48;102839.16;;;10.59;34.91
29417;BME280;28421;51.030;4.006;2023-04-03T14:54:17;102811.03;;;10.52;35.80
29417;BME280;28421;51.030;4.006;2023-04-03T14:56:44;102839.72;;;10.97;37.21
29417;BME280;28421;51.030;4.006;2023-04-03T14:59:12;102813.09;;;10.71;35.63
29417;BME280;28421;51.030;4.006;2023-04-03T15:01:38;102831.03;;;10.82;36.47
29417;BME280;28421;51.030;4.006;2023-04-03T15:04:14;102806.03;;;10.59;34.85
29417;BME280;28421;51.030;4.006;2023-04-03T15:06:40;102828.84;;;10.87;37.68
29417;BME280;28421;51.030;4.006;2023-04-03T15:09:18;102819.19;;;10.73;34.30
29417;BME280;28421;51.030;4.006;2023-04-03T15:11:45;102843.41;;;10.84;36.02
29417;BME280;28421;51.030;4.006;2023-04-03T15:14:11;102813.34;;;10.68;34.63
29417;BME280;28421;51.030;4.006;2023-04-03T15:16:36;102820.53;;;10.79;36.24
29417;BME280;28421;51.030;4.006;2023-04-03T15:19:02;102814.69;;;10.62;34.50
29417;BME280;28421;51.030;4.006;2023-04-03T15:21:28;102783.03;;;10.55;35.28
29417;BME280;28421;51.030;4.006;2023-04-03T15:23:53;102785.41;;;10.37;33.04
29417;BME280;28421;51.030;4.006;2023-04-03T15:26:19;102818.25;;;10.63;33.77
29417;BME280;28421;51.030;4.006;2023-04-03T15:28:46;102810.19;;;10.52;33.50
29417;BME280;28421;51.030;4.006;2023-04-03T15:31:11;102799.78;;;10.58;35.34
29417;BME280;28421;51.030;4.006;2023-04-03T15:33:37;102825.19;;;10.77;33.78
29417;BME280;28421;51.030;4.006;2023-04-03T15:36:03;102784.38;;;10.60;35.82
29417;BME280;28421;51.030;4.006;2023-04-03T15:38:29;102805.16;;;10.58;34.87
29417;BME280;28421;51.030;4.006;2023-04-03T15:40:55;102767.53;;;10.36;33.73
29417;BME280;28421;51.030;4.006;2023-04-03T15:43:21;102774.38;;;10.40;34.72
29417;BME280;28421;51.030;4.006;2023-04-03T15:45:48;102796.50;;;10.55;36.05
29417;BME280;28421;51.030;4.006;2023-04-03T15:48:14;102794.53;;;10.34;35.54
29417;BME280;28421;51.030;4.006;2023-04-03T15:50:40;102799.31;;;10.42;35.75
29417;BME280;28421;51.030;4.006;2023-04-03T15:53:06;102797.72;;;10.28;36.64
29417;BME280;28421;51.030;4.006;2023-04-03T15:55:34;102833.41;;;10.41;34.27
29417;BME280;28421;51.030;4.006;2023-04-03T15:58:00;102832.44;;;10.42;35.86
29417;BME280;28421;51.030;4.006;2023-04-03T16:00:26;102827.88;;;10.20;34.41
29417;BME280;28421;51.030;4.006;2023-04-03T16:02:59;102823.59;;;10.18;34.49
29417;BME280;28421;51.030;4.006;2023-04-03T16:05:27;102815.28;;;10.21;34.23
29417;BME280;28421;51.030;4.006;2023-04-03T16:07:52;102788.75;;;10.05;36.20
29417;BME280;28421;51.030;4.006;2023-04-03T16:10:21;102761.16;;;9.92;35.00
29417;BME280;28421;51.030;4.006;2023-04-03T16:12:47;102816.50;;;10.17;35.36
29417;BME280;28421;51.030;4.006;2023-04-03T16:15:12;102784.09;;;9.85;35.70
29417;BME280;28421;51.030;4.006;2023-04-03T16:17:39;102829.53;;;9.99;36.37
29417;BME280;28421;51.030;4.006;2023-04-03T16:20:07;102789.81;;;9.69;36.11
29417;BME280;28421;51.030;4.006;2023-04-03T16:22:33;102788.50;;;9.86;34.80
29417;BME280;28421;51.030;4.006;2023-04-03T16:24:59;102807.47;;;9.95;34.42
29417;BME280;28421;51.030;4.006;2023-04-03T16:27:25;102785.44;;;9.79;34.94
29417;BME280;28421;51.030;4.006;2023-04-03T16:29:56;102807.88;;;9.78;34.99
29417;BME280;28421;51.030;4.006;2023-04-03T16:32:22;102798.09;;;9.55;34.74
29417;BME280;28421;51.030;4.006;2023-04-03T16:34:48;102798.94;;;9.55;34.70
29417;BME280;28421;51.030;4.006;2023-04-03T16:37:14;102807.03;;;9.66;34.87
29417;BME280;28421;51.030;4.006;2023-04-03T16:39:40;102816.44;;;9.72;36.17
29417;BME280;28421;51.030;4.006;2023-04-03T16:42:05;102807.63;;;9.59;35.14
29417;BME280;28421;51.030;4.006;2023-04-03T16:44:31;102789.84;;;9.45;35.11
29417;BME280;28421;51.030;4.006;2023-04-03T16:46:56;102810.88;;;9.51;36.09
29417;BME280;28421;51.030;4.006;2023-04-03T16:49:22;102799.25;;;9.39;35.23
29417;BME280;28421;51.030;4.006;2023-04-03T16:51:48;102825.97;;;9.41;35.86
29417;BME280;28421;51.030;4.006;2023-04-03T16:54:14;102802.94;;;9.14;36.83
29417;BME280;28421;51.030;4.006;2023-04-03T16:56:39;102809.50;;;9.10;36.22
29417;BME280;28421;51.030;4.006;2023-04-03T16:59:10;102799.50;;;9.12;36.22
29417;BME280;28421;51.030;4.006;2023-04-03T17:01:35;102809.06;;;9.04;36.13
29417;BME280;28421;51.030;4.006;2023-04-03T17:04:00;102821.94;;;9.11;37.14
29417;BME280;28421;51.030;4.006;2023-04-03T17:06:26;102806.88;;;8.98;37.17
29417;BME280;28421;51.030;4.006;2023-04-03T17:08:52;102811.47;;;8.95;36.94
29417;BME280;28421;51.030;4.006;2023-04-03T17:11:27;102825.88;;;8.94;36.65
29417;BME280;28421;51.030;4.006;2023-04-03T17:13:53;102824.63;;;8.75;37.04
29417;BME280;28421;51.030;4.006;2023-04-03T17:16:18;102831.50;;;8.79;37.80
29417;BME280;28421;51.030;4.006;2023-04-03T17:18:46;102833.53;;;8.88;38.72
29417;BME280;28421;51.030;4.006;2023-04-03T17:21:13;102834.50;;;8.74;37.27
29417;BME280;28421;51.030;4.006;2023-04-03T17:23:41;102820.16;;;8.62;38.56
29417;BME280;28421;51.030;4.006;2023-04-03T17:26:10;102808.63;;;8.49;37.63
29417;BME280;28421;51.030;4.006;2023-04-03T17:28:38;102826.44;;;8.37;38.46
29417;BME280;28421;51.030;4.006;2023-04-03T17:31:06;102844.66;;;8.45;38.80
29417;BME280;28421;51.030;4.006;2023-04-03T17:33:32;102785.38;;;8.11;39.84
29417;BME280;28421;51.030;4.006;2023-04-03T17:36:02;102837.25;;;8.23;39.97
29417;BME280;28421;51.030;4.006;2023-04-03T17:38:29;102801.13;;;8.03;39.53
29417;BME280;28421;51.030;4.006;2023-04-03T17:41:01;102814.53;;;8.03;38.95
29417;BME280;28421;51.030;4.006;2023-04-03T17:43:27;102823.63;;;7.88;41.24
29417;BME280;28421;51.030;4.006;2023-04-03T17:45:53;102841.19;;;7.92;40.76
29417;BME280;28421;51.030;4.006;2023-04-03T17:48:19;102806.69;;;7.62;39.99
29417;BME280;28421;51.030;4.006;2023-04-03T17:50:44;102850.00;;;7.94;39.60
29417;BME280;28421;51.030;4.006;2023-04-03T17:53:12;102801.78;;;7.68;40.07